METAR Data
IDs: Format: Raw Decoded Include TAF

Data at: 0156 UTC 26 Apr 2019

Region: TOP
KATL 260152Z 00000KT 10SM FEW080 BKN120 OVC150 17/14 A2987 RMK AO2 RAE08 SLP109 P0000 T01670139

KBOS 260054Z 12006KT 10SM FEW130 SCT180 11/06 A2996 RMK AO2 SLP145 T01060061

KBWI 260054Z 11006KT 10SM BKN120 OVC160 19/11 A2987 RMK AO2 SLP115 T01890111

KCLE 260151Z 15007KT 9SM SCT090 BKN110 16/14 A2970 RMK AO2 RAE37 SLP055 P0001 T01560144 $

KCLT 260152Z 23006KT 10SM FEW060 SCT160 OVC190 22/14 A2988 RMK AO2 SLP110 T02170139

KCVG 260152Z 16007KT 7SM -RA SCT055 BKN070 OVC085 16/15 A2963 RMK AO2 LTG DSNT E AND SE TSE15 SLP029 TS MOV NE P0019 T01610150

KDCA 260152Z 09006KT 10SM FEW060 SCT085 OVC120 19/11 A2989 RMK AO2 SLP120 T01940111

KDEN 260153Z 10010KT 10SM FEW070 FEW220 13/00 A3018 RMK AO2 SLP185 T01280000

KDFW 260153Z 32010KT 10SM FEW070 24/14 A2992 RMK AO2 SLP123 T02440139

KDTW 260153Z 06007KT 8SM OVC018 09/07 A2968 RMK AO2 RAE12 SLP053 P0004 T00940072 $

KEWR 260151Z 00000KT 10SM BKN060 OVC080 12/09 A2994 RMK AO2 RAE0054B10E43 SLP138 P0000 T01220094 $

KFLL 260153Z 16008KT 10SM FEW033 26/19 A2998 RMK AO2 SLP152 T02560189

KIAD 260152Z VRB04KT 10SM -RA SCT050 BKN070 OVC110 18/13 A2989 RMK AO2 RAB19 SLP121 P0000 T01780128

KIAH 260153Z 32004KT 10SM CLR 24/15 A2991 RMK AO2 SLP128 T02440150

KJFK 260151Z 11008KT 10SM -RA SCT065 OVC085 11/09 A2995 RMK AO2 RAE23B26 SLP142 P0000 T01060094

KLAS 260056Z 00000KT 10SM FEW110 BKN250 34/01 A2984 RMK AO2 SLP079 VIRGA S AND NW T03390006

KLAX 260153Z 24011KT 9SM BKN010 BKN250 16/12 A2995 RMK AO2 SLP142 T01560122

KLGA 260151Z 17006KT 10SM BKN065 OVC095 12/08 A2994 RMK AO2 RAB0056E40 SLP137 P0000 T01220078

KMCO 260153Z 11006KT 10SM SCT220 BKN250 24/17 A2996 RMK AO2 SLP143 T02390167

KMDW 260153Z 04003KT 10SM FEW090 BKN150 OVC200 13/04 A2968 RMK AO2 SLP048 T01330044

KMEM 260133Z 34005KT 7SM R36L/6000VP6000FT -RA FEW009 SCT018 BKN060 18/18 A2977 RMK AO2 RAB12 P0001 T01830178

KMIA 260153Z 13006KT 10SM FEW035 FEW150 BKN250 25/21 A2999 RMK AO2 SLP156 T02500206

KMSP 260153Z 32014KT 10SM FEW120 SCT250 17/M02 A2986 RMK AO2 PK WND 32026/0122 SLP111 T01671022

KORD 260151Z 34008KT 10SM BKN065 OVC120 13/04 A2969 RMK AO2 SLP052 T01330039

KPDX 260153Z 33006KT 10SM FEW140 SCT170 OVC250 20/05 A2999 RMK AO2 SLP155 T02000050

KPHL 260054Z 08006KT 10SM SCT043 OVC100 17/09 A2990 RMK AO2 SLP126 T01670094 $

KPHX 260151Z 30007KT 10SM FEW120 FEW250 36/M02 A2981 RMK AO2 SLP074 T03561022

KPIT 260151Z 13003KT 3SM -RA BR FEW005 BKN060 OVC080 16/16 A2975 RMK AO2 RAB48 SLP081 P0000 T01560156

KSAN 260151Z 28007KT 10SM FEW010 FEW250 18/13 A2997 RMK AO2 SLP149 T01830133

KSEA 260153Z 34008KT 10SM BKN150 OVC200 14/06 A3005 RMK AO2 SLP183 T01390056

KSFO 260056Z 31015KT 10SM FEW004 FEW037 SCT200 14/09 A2994 RMK AO2 SLP139 T01440094

KSLC 260054Z 36007KT 10SM FEW080 FEW140 SCT210 BKN250 22/08 A3005 RMK AO2 SLP143 CB DSNT SE-SW TCU DSNT NW T02170083

KSTL 260151Z 29007KT 10SM SCT042 BKN180 BKN230 16/12 A2976 RMK AO2 SLP075 T01560122

KTPA 260153Z 19008KT 10SM BKN170 BKN250 24/19 A2997 RMK AO2 SLP147 T02390194